Time;durP1;ratioP1;P1;durP2;ratioP2;P2;SDS_P1;SDS_P2;PMS_P1;PMS_P2;Temp;Humidity;BMP_temperature;BMP_pressure;BME280_temperature;BME280_humidity;BME280_pressure;Samples;Min_cycle;Max_cycle;Signal;HPM_P1;HPM_P2
2021/07/26 00:01:21;;;;;;;7.65;4.53;;;;;;;;;;6160547;28;20283;-83
2021/07/26 00:04:27;;;;;;;10.10;6.00;;;;;;;;;;6140240;28;20096;-83
2021/07/26 00:07:32;;;;;;;13.75;5.47;;;;;;;;;;6130857;28;20041;-83
2021/07/26 00:10:35;;;;;;;14.02;6.60;;;;;;;;;;6177009;28;20037;-82
2021/07/26 00:13:37;;;;;;;12.30;6.25;;;;;;;;;;6180883;28;20100;-83
2021/07/26 00:16:42;;;;;;;12.32;5.43;;;;;;;;;;6147337;28;20310;-83
2021/07/26 00:19:47;;;;;;;22.10;6.05;;;;;;;;;;6149266;28;20058;-83
2021/07/26 00:22:53;;;;;;;10.60;6.40;;;;;;;;;;6173545;28;20121;-82
2021/07/26 00:25:55;;;;;;;10.70;5.68;;;;;;;;;;6173141;28;20065;-82
2021/07/26 00:28:57;;;;;;;10.07;5.43;;;;;;;;;;6192375;28;20033;-83
2021/07/26 00:32:00;;;;;;;;;;;;;;;;;;6181612;28;20038;-83
2021/07/26 00:35:01;;;;;;;17.35;5.97;;;;;;;;;;6186153;28;19980;-83
2021/07/26 00:38:03;;;;;;;10.00;6.13;;;;;;;;;;6173722;28;20396;-83
2021/07/26 00:41:05;;;;;;;16.35;6.13;;;;;;;;;;6157678;28;20271;-82
2021/07/26 00:44:07;;;;;;;10.80;5.68;;;;;;;;;;6154954;28;20132;-83
2021/07/26 00:47:09;;;;;;;13.20;5.97;;;;;;;;;;6186616;28;20061;-83
2021/07/26 00:50:11;;;;;;;9.32;5.38;;;;;;;;;;6198285;28;20061;-83
2021/07/26 00:53:13;;;;;;;6.97;4.57;;;;;;;;;;6189269;28;20046;-82
2021/07/26 00:56:15;;;;;;;8.57;4.93;;;;;;;;;;6180850;28;20100;-82
2021/07/26 00:59:17;;;;;;;;;;;;;;;;;;6196695;28;20045;-82
2021/07/26 01:02:22;;;;;;;8.20;4.80;;;;;;;;;;6199705;28;20638;-83
2021/07/26 01:05:24;;;;;;;11.02;4.93;;;;;;;;;;6198244;28;20045;-82
2021/07/26 01:08:26;;;;;;;14.45;6.70;;;;;;;;;;6190994;28;20064;-82
2021/07/26 01:11:28;;;;;;;12.25;5.50;;;;;;;;;;6191559;28;20109;-82
2021/07/26 01:14:31;;;;;;;12.70;5.40;;;;;;;;;;6164232;28;20049;-82
2021/07/26 01:18:14;;;;;;;10.25;6.00;;;;;;;;;;6196460;28;20045;-82
2021/07/26 01:21:18;;;;;;;10.77;5.57;;;;;;;;;;6197994;28;20041;-82
2021/07/26 01:24:20;;;;;;;11.35;5.15;;;;;;;;;;6180210;28;20119;-82
2021/07/26 01:27:22;;;;;;;13.85;5.60;;;;;;;;;;6182340;28;20041;-81
2021/07/26 01:30:24;;;;;;;7.43;5.10;;;;;;;;;;6198822;28;20045;-82
2021/07/26 01:33:26;;;;;;;10.50;5.43;;;;;;;;;;6195565;28;20045;-82
2021/07/26 01:36:28;;;;;;;17.92;5.65;;;;;;;;;;6171535;28;20056;-82
2021/07/26 01:39:30;;;;;;;24.87;5.97;;;;;;;;;;6155611;28;20144;-82
2021/07/26 01:42:34;;;;;;;26.33;6.55;;;;;;;;;;6161635;28;20720;-82
2021/07/26 01:45:39;;;;;;;10.75;5.05;;;;;;;;;;6190015;28;20072;-82
2021/07/26 01:48:59;;;;;;;41.20;6.47;;;;;;;;;;6176737;28;20049;-82
2021/07/26 01:52:03;;;;;;;10.70;4.78;;;;;;;;;;6152332;28;20074;-82
2021/07/26 01:55:05;;;;;;;9.90;4.63;;;;;;;;;;6179835;28;20312;-82
2021/07/26 01:58:07;;;;;;;8.37;4.97;;;;;;;;;;6191958;28;20041;-82
2021/07/26 02:01:09;;;;;;;7.70;5.03;;;;;;;;;;6143054;28;20279;-82
2021/07/26 02:04:11;;;;;;;9.95;4.90;;;;;;;;;;6140499;28;20393;-82
2021/07/26 02:07:12;;;;;;;8.35;4.85;;;;;;;;;;6152814;28;20045;-82
2021/07/26 02:10:14;;;;;;;6.72;4.85;;;;;;;;;;6191702;28;20053;-82
2021/07/26 02:13:15;;;;;;;10.65;5.00;;;;;;;;;;6155465;28;20110;-82
2021/07/26 02:16:18;;;;;;;7.55;5.03;;;;;;;;;;6167956;28;20743;-82
2021/07/26 02:19:20;;;;;;;6.10;4.45;;;;;;;;;;6189487;28;20045;-82
2021/07/26 02:22:22;;;;;;;6.22;4.68;;;;;;;;;;6194771;28;20097;-82
2021/07/26 02:25:24;;;;;;;5.27;3.90;;;;;;;;;;6191937;28;20128;-81
2021/07/26 02:28:26;;;;;;;6.35;4.20;;;;;;;;;;6157323;28;20800;-82
2021/07/26 02:31:27;;;;;;;12.05;4.30;;;;;;;;;;6170775;28;20093;-83
2021/07/26 02:34:29;;;;;;;6.53;3.92;;;;;;;;;;6166601;28;20045;-82
2021/07/26 02:37:31;;;;;;;21.27;5.03;;;;;;;;;;6186789;28;20053;-82
2021/07/26 02:40:33;;;;;;;9.40;4.80;;;;;;;;;;6176641;28;20057;-81
2021/07/26 02:43:34;;;;;;;17.03;5.73;;;;;;;;;;6192737;28;20162;-82
2021/07/26 02:46:36;;;;;;;35.92;5.70;;;;;;;;;;6194710;28;20042;-82
2021/07/26 02:49:38;;;;;;;22.77;6.20;;;;;;;;;;6188126;28;20069;-81
2021/07/26 02:52:40;;;;;;;15.70;5.73;;;;;;;;;;6178461;28;20041;-82
2021/07/26 02:55:42;;;;;;;15.05;5.88;;;;;;;;;;6170690;28;20437;-82
2021/07/26 02:58:44;;;;;;;10.18;5.28;;;;;;;;;;6168488;28;20044;-81
2021/07/26 03:01:45;;;;;;;12.63;5.32;;;;;;;;;;6167946;28;20037;-81
2021/07/26 03:04:47;;;;;;;23.85;5.90;;;;;;;;;;6196240;28;20041;-84
2021/07/26 03:07:49;;;;;;;14.48;5.72;;;;;;;;;;6201486;28;20087;-86
2021/07/26 03:10:50;;;;;;;15.90;5.15;;;;;;;;;;6166441;28;20045;-85
2021/07/26 03:13:52;;;;;;;40.08;6.18;;;;;;;;;;6194531;28;20124;-84
2021/07/26 03:16:54;;;;;;;16.65;4.75;;;;;;;;;;6205586;28;20045;-83
2021/07/26 03:19:56;;;;;;;13.18;5.57;;;;;;;;;;6202985;28;20312;-84
2021/07/26 03:22:59;;;;;;;28.35;4.78;;;;;;;;;;6193317;28;20841;-82
2021/07/26 03:26:01;;;;;;;17.63;4.82;;;;;;;;;;6174142;28;20053;-85
2021/07/26 03:29:03;;;;;;;7.15;4.53;;;;;;;;;;6204841;28;20377;-84
2021/07/26 03:32:05;;;;;;;15.57;4.40;;;;;;;;;;6175182;28;20226;-84
2021/07/26 03:35:07;;;;;;;10.60;4.80;;;;;;;;;;6188374;28;20574;-85
2021/07/26 03:38:09;;;;;;;10.10;4.30;;;;;;;;;;6181255;28;20041;-85
2021/07/26 03:41:11;;;;;;;6.15;3.92;;;;;;;;;;6166911;28;20444;-82
2021/07/26 03:44:16;;;;;;;10.57;5.20;;;;;;;;;;6185029;28;20361;-85
2021/07/26 03:47:18;;;;;;;5.97;3.90;;;;;;;;;;6204046;28;20735;-82
2021/07/26 03:50:19;;;;;;;6.20;3.80;;;;;;;;;;6179267;28;20042;-82
2021/07/26 03:53:21;;;;;;;6.35;4.30;;;;;;;;;;6178206;28;20042;-84
2021/07/26 03:56:57;;;;;;;6.10;4.10;;;;;;;;;;6180297;28;20049;-84
2021/07/26 03:59:58;;;;;;;8.73;4.15;;;;;;;;;;6152808;28;20065;-84
2021/07/26 04:06:12;;;;;;;6.32;3.88;;;;;;;;;;6200469;28;20729;-85
2021/07/26 04:09:14;;;;;;;15.43;4.38;;;;;;;;;;6185494;28;20040;-87
2021/07/26 04:12:22;;;;;;;4.75;3.47;;;;;;;;;;6167831;28;20053;-85
2021/07/26 04:15:24;;;;;;;5.57;3.42;;;;;;;;;;6183068;28;20125;-87
2021/07/26 04:18:28;;;;;;;5.07;3.58;;;;;;;;;;6156954;28;20041;-86
2021/07/26 04:21:31;;;;;;;6.22;3.13;;;;;;;;;;6139313;28;20249;-84
2021/07/26 04:24:33;;;;;;;6.00;3.72;;;;;;;;;;6171745;28;20042;-84
2021/07/26 04:27:36;;;;;;;8.15;3.75;;;;;;;;;;6193358;28;20049;-86
2021/07/26 04:30:38;;;;;;;5.45;3.15;;;;;;;;;;6175410;28;20041;-85
2021/07/26 04:33:39;;;;;;;6.15;3.40;;;;;;;;;;6168648;28;20045;-85
2021/07/26 04:36:41;;;;;;;16.05;3.80;;;;;;;;;;6184015;28;20056;-85
2021/07/26 04:39:43;;;;;;;4.10;2.85;;;;;;;;;;6179004;28;20037;-84
2021/07/26 04:42:45;;;;;;;8.85;3.55;;;;;;;;;;6191678;28;20044;-85
2021/07/26 04:45:46;;;;;;;6.70;3.17;;;;;;;;;;6189575;28;20809;-85
2021/07/26 04:48:54;;;;;;;45.78;4.88;;;;;;;;;;6190166;28;20103;-85
2021/07/26 04:51:55;;;;;;;4.22;2.65;;;;;;;;;;6193958;28;20128;-86
2021/07/26 04:54:57;;;;;;;21.27;3.70;;;;;;;;;;6188501;28;20038;-85
2021/07/26 04:57:58;;;;;;;10.50;3.08;;;;;;;;;;6147368;28;20767;-84
2021/07/26 05:01:00;;;;;;;5.20;3.13;;;;;;;;;;6161965;28;20038;-84
2021/07/26 05:04:02;;;;;;;5.32;3.22;;;;;;;;;;6166915;28;20048;-85
2021/07/26 05:07:04;;;;;;;6.80;3.25;;;;;;;;;;6167245;28;20879;-86
2021/07/26 05:10:10;;;;;;;4.88;2.83;;;;;;;;;;6165659;28;20292;-86
2021/07/26 05:13:12;;;;;;;7.93;3.38;;;;;;;;;;6176156;28;20128;-85
2021/07/26 05:16:13;;;;;;;4.72;3.17;;;;;;;;;;6184762;28;20034;-84
2021/07/26 05:19:15;;;;;;;4.40;3.50;;;;;;;;;;6183582;28;20154;-86
2021/07/26 05:22:17;;;;;;;13.27;3.40;;;;;;;;;;6185578;28;20787;-85
2021/07/26 05:25:19;;;;;;;31.25;4.35;;;;;;;;;;6184536;28;20074;-85
2021/07/26 05:28:20;;;;;;;5.72;3.38;;;;;;;;;;6147760;28;20069;-84
2021/07/26 05:31:22;;;;;;;7.30;3.75;;;;;;;;;;6160193;28;20876;-84
2021/07/26 05:34:25;;;;;;;7.68;3.47;;;;;;;;;;6143274;28;20072;-85
2021/07/26 05:37:26;;;;;;;4.45;3.70;;;;;;;;;;6161776;28;20682;-85
2021/07/26 05:40:28;;;;;;;8.80;4.10;;;;;;;;;;6184381;28;20112;-85
2021/07/26 05:43:29;;;;;;;6.57;4.15;;;;;;;;;;6150029;28;20775;-85
2021/07/26 05:46:31;;;;;;;42.22;4.90;;;;;;;;;;6159167;28;20117;-85
2021/07/26 05:49:34;;;;;;;7.88;4.22;;;;;;;;;;6161136;28;20049;-84
2021/07/26 05:52:35;;;;;;;48.33;6.72;;;;;;;;;;6150116;28;20038;-85
2021/07/26 05:55:40;;;;;;;9.63;3.90;;;;;;;;;;6184132;28;20790;-85
2021/07/26 05:58:44;;;;;;;24.73;4.78;;;;;;;;;;6186138;28;20065;-83
2021/07/26 06:01:49;;;;;;;12.07;4.00;;;;;;;;;;6185771;28;20104;-84
2021/07/26 06:04:51;;;;;;;5.20;3.75;;;;;;;;;;6175876;28;20113;-84
2021/07/26 06:07:53;;;;;;;7.28;4.13;;;;;;;;;;6167767;28;20099;-85
2021/07/26 06:10:55;;;;;;;7.05;4.18;;;;;;;;;;6167647;28;20834;-86
2021/07/26 06:13:57;;;;;;;5.43;4.22;;;;;;;;;;6142682;28;20808;-85
2021/07/26 06:16:59;;;;;;;11.18;4.55;;;;;;;;;;6164442;28;20095;-84
2021/07/26 06:20:03;;;;;;;7.82;4.18;;;;;;;;;;6187191;28;20072;-85
2021/07/26 06:23:04;;;;;;;5.25;3.83;;;;;;;;;;6183602;28;20101;-84
2021/07/26 06:26:07;;;;;;;7.00;4.03;;;;;;;;;;6184764;28;20061;-85
2021/07/26 06:29:09;;;;;;;6.18;4.28;;;;;;;;;;6172606;28;20037;-85
2021/07/26 06:32:11;;;;;;;7.10;4.22;;;;;;;;;;6173969;28;20052;-84
2021/07/26 06:35:13;;;;;;;8.90;4.87;;;;;;;;;;6171546;28;20099;-84
2021/07/26 06:38:17;;;;;;;6.45;4.30;;;;;;;;;;6162977;28;20426;-85
2021/07/26 06:41:21;;;;;;;7.07;4.22;;;;;;;;;;6165011;28;20085;-83
2021/07/26 06:44:23;;;;;;;7.73;4.47;;;;;;;;;;6195944;28;20061;-84
2021/07/26 06:47:24;;;;;;;6.32;4.43;;;;;;;;;;6198552;28;20128;-83
2021/07/26 06:50:27;;;;;;;6.75;4.80;;;;;;;;;;6194911;28;20041;-83
2021/07/26 06:53:28;;;;;;;8.10;5.23;;;;;;;;;;6192328;28;20042;-85
2021/07/26 06:56:30;;;;;;;6.22;4.88;;;;;;;;;;6154016;28;20057;-84
2021/07/26 06:59:31;;;;;;;5.80;4.38;;;;;;;;;;6156402;28;20069;-79
2021/07/26 07:02:33;;;;;;;6.70;4.75;;;;;;;;;;6194341;28;20831;-78
2021/07/26 07:05:35;;;;;;;5.53;3.97;;;;;;;;;;6176772;28;20085;-79
2021/07/26 07:08:38;;;;;;;6.60;4.80;;;;;;;;;;6193910;28;20118;-78
2021/07/26 07:11:40;;;;;;;6.35;4.30;;;;;;;;;;6171150;28;20314;-78
2021/07/26 07:14:42;;;;;;;5.10;4.10;;;;;;;;;;6168516;28;20100;-80
2021/07/26 07:17:43;;;;;;;7.13;3.95;;;;;;;;;;6169505;28;20065;-79
2021/07/26 07:20:45;;;;;;;6.43;4.22;;;;;;;;;;6137566;28;20045;-81
2021/07/26 07:23:48;;;;;;;5.60;3.58;;;;;;;;;;6170031;28;20109;-80
2021/07/26 07:26:49;;;;;;;6.13;4.47;;;;;;;;;;6170986;28;20050;-79
2021/07/26 07:29:51;;;;;;;5.07;4.18;;;;;;;;;;6193937;28;20770;-80
2021/07/26 07:33:00;;;;;;;5.07;3.80;;;;;;;;;;6189274;28;20046;-80
2021/07/26 07:36:06;;;;;;;4.93;3.78;;;;;;;;;;6189684;28;20283;-79
2021/07/26 07:39:09;;;;;;;4.10;3.70;;;;;;;;;;6211634;28;20834;-80
2021/07/26 07:42:11;;;;;;;5.18;3.50;;;;;;;;;;6155043;28;20515;-80
2021/07/26 07:45:13;;;;;;;4.63;3.40;;;;;;;;;;6171371;28;20855;-79
2021/07/26 07:48:18;;;;;;;5.57;4.20;;;;;;;;;;6160696;28;20049;-80
2021/07/26 07:51:20;;;;;;;4.18;3.78;;;;;;;;;;6178037;28;20120;-80
2021/07/26 07:54:22;;;;;;;4.65;3.53;;;;;;;;;;6171985;28;20378;-80
2021/07/26 07:57:25;;;;;;;4.20;3.17;;;;;;;;;;6179036;28;20049;-79
2021/07/26 08:00:27;;;;;;;3.55;2.83;;;;;;;;;;6193534;28;20452;-79
2021/07/26 08:03:29;;;;;;;4.65;3.15;;;;;;;;;;6180093;28;20038;-80
2021/07/26 08:06:31;;;;;;;3.60;3.00;;;;;;;;;;6194713;28;20372;-80
2021/07/26 08:09:33;;;;;;;6.13;3.20;;;;;;;;;;6192173;28;20477;-80
2021/07/26 08:12:34;;;;;;;3.17;2.83;;;;;;;;;;6158991;28;20053;-78
2021/07/26 08:15:37;;;;;;;3.38;2.78;;;;;;;;;;6195755;28;20907;-78
2021/07/26 08:18:39;;;;;;;5.18;2.90;;;;;;;;;;6154633;28;20042;-79
2021/07/26 08:21:41;;;;;;;4.60;2.55;;;;;;;;;;6134584;28;20038;-80
2021/07/26 08:24:43;;;;;;;3.60;2.88;;;;;;;;;;6155077;28;20145;-80
2021/07/26 08:27:52;;;;;;;5.63;2.70;;;;;;;;;;6169677;28;20111;-80
2021/07/26 08:30:53;;;;;;;3.63;3.08;;;;;;;;;;6188186;28;20095;-81
2021/07/26 08:33:56;;;;;;;3.25;2.75;;;;;;;;;;6179706;28;20056;-80
2021/07/26 08:36:59;;;;;;;3.55;2.30;;;;;;;;;;6196157;28;20368;-79
2021/07/26 08:40:02;;;;;;;2.67;2.30;;;;;;;;;;6178248;28;20057;-78
2021/07/26 08:43:08;;;;;;;;;;;;;;;;;;6181945;28;20046;-81
2021/07/26 08:46:11;;;;;;;4.07;2.80;;;;;;;;;;6195651;28;19925;-79
2021/07/26 08:49:14;;;;;;;4.70;2.90;;;;;;;;;;6180344;28;20041;-79
2021/07/26 08:52:19;;;;;;;5.53;3.15;;;;;;;;;;6196532;28;20083;-80
2021/07/26 08:55:23;;;;;;;4.07;2.38;;;;;;;;;;6159600;28;20041;-79
2021/07/26 08:58:25;;;;;;;3.60;2.40;;;;;;;;;;6177656;28;20215;-78
2021/07/26 09:01:28;;;;;;;3.90;2.80;;;;;;;;;;6190686;28;20049;-77
2021/07/26 09:04:30;;;;;;;3.90;2.40;;;;;;;;;;6192418;28;20037;-78
2021/07/26 09:07:37;;;;;;;3.45;2.30;;;;;;;;;;6166917;28;20050;-78
2021/07/26 09:10:43;;;;;;;2.58;2.38;;;;;;;;;;6185891;28;20045;-78
2021/07/26 09:13:45;;;;;;;4.28;2.55;;;;;;;;;;6165719;28;20101;-78
2021/07/26 09:16:55;;;;;;;3.07;2.33;;;;;;;;;;6161453;28;20045;-79
2021/07/26 09:19:58;;;;;;;2.85;2.35;;;;;;;;;;6178984;28;20455;-79
2021/07/26 09:23:10;;;;;;;;;;;;;;;;;;6185551;28;20096;-79
2021/07/26 09:26:25;;;;;;;4.07;2.50;;;;;;;;;;6182941;28;19944;-79
2021/07/26 09:29:28;;;;;;;2.13;1.92;;;;;;;;;;6172201;28;20053;-80
2021/07/26 09:32:37;;;;;;;3.25;2.20;;;;;;;;;;6169653;28;20322;-78
2021/07/26 09:35:39;;;;;;;2.60;2.28;;;;;;;;;;6162961;28;20057;-78
2021/07/26 09:38:43;;;;;;;3.95;2.40;;;;;;;;;;6165030;28;20384;-79
2021/07/26 09:41:47;;;;;;;3.40;2.40;;;;;;;;;;6181979;28;20052;-78
2021/07/26 09:44:49;;;;;;;2.65;2.30;;;;;;;;;;6169172;28;20064;-76
2021/07/26 09:48:12;;;;;;;3.10;2.33;;;;;;;;;;6169432;28;20144;-79
2021/07/26 09:51:16;;;;;;;2.83;2.10;;;;;;;;;;6166580;28;20944;-78
2021/07/26 09:54:19;;;;;;;3.13;2.20;;;;;;;;;;6169251;28;20037;-79
2021/07/26 09:57:23;;;;;;;4.22;2.22;;;;;;;;;;6183178;28;20115;-78
2021/07/26 10:00:25;;;;;;;3.05;2.00;;;;;;;;;;6152420;28;20068;-77
2021/07/26 10:03:28;;;;;;;3.28;1.95;;;;;;;;;;6190498;28;20114;-79
2021/07/26 10:06:31;;;;;;;3.00;2.00;;;;;;;;;;6160441;28;20053;-80
2021/07/26 10:09:33;;;;;;;3.53;2.15;;;;;;;;;;6167494;28;20318;-80
2021/07/26 10:12:37;;;;;;;2.05;1.85;;;;;;;;;;6160100;28;20048;-83
2021/07/26 10:15:38;;;;;;;2.58;2.00;;;;;;;;;;6175971;28;20045;-80
2021/07/26 10:18:45;;;;;;;2.75;2.15;;;;;;;;;;6162051;28;20131;-80
2021/07/26 10:21:47;;;;;;;3.35;2.55;;;;;;;;;;6150842;28;20038;-79
2021/07/26 10:24:59;;;;;;;3.65;2.20;;;;;;;;;;6171890;28;20048;-78
2021/07/26 10:28:04;;;;;;;4.03;2.60;;;;;;;;;;6179883;28;21059;-77
2021/07/26 10:31:31;;;;;;;2.75;1.90;;;;;;;;;;6170577;28;20041;-78
2021/07/26 10:34:33;;;;;;;3.13;1.90;;;;;;;;;;6184325;28;20037;-79
2021/07/26 10:37:41;;;;;;;3.35;2.20;;;;;;;;;;6189370;28;20045;-78
2021/07/26 10:40:43;;;;;;;4.32;2.50;;;;;;;;;;6189795;28;20132;-77
2021/07/26 10:44:00;;;;;;;3.83;2.00;;;;;;;;;;6188221;28;20037;-78
2021/07/26 10:47:07;;;;;;;2.72;2.05;;;;;;;;;;6178859;28;20443;-78
2021/07/26 10:50:11;;;;;;;3.42;1.90;;;;;;;;;;6185956;28;20048;-76
2021/07/26 10:53:32;;;;;;;2.13;1.45;;;;;;;;;;6157066;28;20038;-76
2021/07/26 10:57:07;;;;;;;1.58;1.30;;;;;;;;;;6166774;28;20207;-77
2021/07/26 11:00:12;;;;;;;4.45;1.60;;;;;;;;;;6131987;28;20095;-77
2021/07/26 11:03:42;;;;;;;2.55;1.80;;;;;;;;;;6171729;28;20073;-78
2021/07/26 11:06:44;;;;;;;2.22;1.17;;;;;;;;;;6169737;28;20045;-77
2021/07/26 11:09:46;;;;;;;2.10;1.27;;;;;;;;;;6159096;28;20456;-77
2021/07/26 11:12:52;;;;;;;2.38;1.40;;;;;;;;;;6162216;28;20100;-77
2021/07/26 11:15:55;;;;;;;2.50;1.60;;;;;;;;;;6177922;28;20329;-77
2021/07/26 11:19:29;;;;;;;1.75;1.40;;;;;;;;;;6165013;28;20038;-77
2021/07/26 11:22:31;;;;;;;1.58;1.48;;;;;;;;;;6179872;28;20085;-78
2021/07/26 11:25:33;;;;;;;1.80;1.50;;;;;;;;;;6180772;28;20266;-77
2021/07/26 11:28:36;;;;;;;;;;;;;;;;;;6172881;28;20753;-78
2021/07/26 11:31:40;;;;;;;1.65;1.35;;;;;;;;;;6187480;28;19979;-76
2021/07/26 11:34:43;;;;;;;3.25;1.70;;;;;;;;;;6144302;28;20052;-77
2021/07/26 11:37:45;;;;;;;3.30;1.42;;;;;;;;;;6178286;28;20045;-77
2021/07/26 11:40:46;;;;;;;2.70;1.50;;;;;;;;;;6185727;28;20118;-76
2021/07/26 11:43:48;;;;;;;2.22;1.55;;;;;;;;;;6155006;28;20041;-77
2021/07/26 11:46:50;;;;;;;1.90;1.63;;;;;;;;;;6157612;28;20038;-77
2021/07/26 11:49:52;;;;;;;1.90;1.70;;;;;;;;;;6159824;28;20790;-77
2021/07/26 11:52:55;;;;;;;5.10;1.80;;;;;;;;;;6171831;28;20057;-81
2021/07/26 11:55:57;;;;;;;1.90;1.50;;;;;;;;;;6168671;28;20097;-78
2021/07/26 11:59:12;;;;;;;2.25;1.85;;;;;;;;;;6169594;28;20104;-80
2021/07/26 12:02:40;;;;;;;2.67;1.90;;;;;;;;;;6175601;28;20864;-79
2021/07/26 12:05:42;;;;;;;3.00;1.77;;;;;;;;;;6185567;28;20045;-79
2021/07/26 12:08:43;;;;;;;6.40;1.60;;;;;;;;;;6168253;28;20434;-79
2021/07/26 12:11:45;;;;;;;2.50;1.95;;;;;;;;;;6167777;28;20890;-79
2021/07/26 12:14:47;;;;;;;2.33;1.90;;;;;;;;;;6188634;28;20124;-80
2021/07/26 12:18:05;;;;;;;2.53;1.95;;;;;;;;;;6149346;28;20188;-78
2021/07/26 12:21:07;;;;;;;3.63;2.25;;;;;;;;;;6165965;28;20890;-79
2021/07/26 12:24:09;;;;;;;2.90;2.28;;;;;;;;;;6155420;28;20042;-77
2021/07/26 12:27:11;;;;;;;3.83;2.28;;;;;;;;;;6171166;28;20033;-78
2021/07/26 12:30:13;;;;;;;;;;;;;;;;;;6183759;28;20745;-77
2021/07/26 12:33:32;;;;;;;2.88;2.20;;;;;;;;;;6181763;28;19917;-78
2021/07/26 12:36:34;;;;;;;2.13;1.92;;;;;;;;;;6155279;28;20368;-77
2021/07/26 12:39:37;;;;;;;4.03;2.40;;;;;;;;;;6139036;28;20257;-78
2021/07/26 12:42:39;;;;;;;3.10;2.00;;;;;;;;;;6179285;28;20061;-77
2021/07/26 12:45:42;;;;;;;2.53;2.33;;;;;;;;;;6165685;28;20855;-78
2021/07/26 12:48:43;;;;;;;2.58;2.05;;;;;;;;;;6154074;28;20165;-78
2021/07/26 12:51:46;;;;;;;3.80;2.70;;;;;;;;;;6162454;28;20050;-77
2021/07/26 12:54:47;;;;;;;3.58;2.40;;;;;;;;;;6188906;28;20048;-77
2021/07/26 12:57:49;;;;;;;3.13;2.40;;;;;;;;;;6173679;28;20045;-77
2021/07/26 13:00:54;;;;;;;3.92;2.40;;;;;;;;;;6171011;28;20835;-77
2021/07/26 13:03:56;;;;;;;3.60;2.55;;;;;;;;;;6163198;28;20131;-79
2021/07/26 13:06:58;;;;;;;2.92;2.63;;;;;;;;;;6159117;28;20842;-78
2021/07/26 13:10:00;;;;;;;3.33;3.00;;;;;;;;;;6158796;28;20037;-78
2021/07/26 13:13:01;;;;;;;5.78;2.97;;;;;;;;;;6176019;28;20176;-79
2021/07/26 13:16:04;;;;;;;4.95;3.10;;;;;;;;;;6165969;28;20042;-78
2021/07/26 13:19:06;;;;;;;5.35;2.85;;;;;;;;;;6136112;28;20046;-78
2021/07/26 13:22:07;;;;;;;5.22;2.95;;;;;;;;;;6155593;28;20073;-79
2021/07/26 13:25:10;;;;;;;3.15;2.40;;;;;;;;;;6154706;28;20291;-79
2021/07/26 13:28:13;;;;;;;2.95;2.65;;;;;;;;;;6171775;28;20788;-79
2021/07/26 13:31:15;;;;;;;3.90;2.40;;;;;;;;;;6165240;28;20920;-79
2021/07/26 13:34:19;;;;;;;4.45;2.67;;;;;;;;;;6168471;28;20823;-79
2021/07/26 13:37:21;;;;;;;3.03;2.47;;;;;;;;;;6176532;28;20127;-80
2021/07/26 13:40:23;;;;;;;3.90;2.40;;;;;;;;;;6158747;28;20033;-78
2021/07/26 13:43:25;;;;;;;3.45;2.55;;;;;;;;;;6172960;28;20071;-79
2021/07/26 13:46:27;;;;;;;4.53;2.58;;;;;;;;;;6151036;28;20136;-79
2021/07/26 13:49:29;;;;;;;2.78;2.30;;;;;;;;;;6173221;28;20046;-79
2021/07/26 13:52:31;;;;;;;3.13;2.53;;;;;;;;;;6173882;28;20038;-79
2021/07/26 13:55:33;;;;;;;2.72;2.30;;;;;;;;;;6190735;28;20044;-79
2021/07/26 13:58:35;;;;;;;3.35;2.47;;;;;;;;;;6158314;28;20038;-79
2021/07/26 14:01:37;;;;;;;5.32;2.55;;;;;;;;;;6163456;28;20073;-80
2021/07/26 14:04:40;;;;;;;4.67;2.70;;;;;;;;;;6176136;28;20041;-78
2021/07/26 14:07:41;;;;;;;3.15;2.80;;;;;;;;;;6173173;28;20306;-78
2021/07/26 14:10:43;;;;;;;3.17;2.42;;;;;;;;;;6149302;28;20120;-79
2021/07/26 14:13:45;;;;;;;2.88;2.50;;;;;;;;;;6160609;28;20281;-78
2021/07/26 14:16:46;;;;;;;3.30;2.53;;;;;;;;;;6149371;28;20579;-79
2021/07/26 14:19:48;;;;;;;2.50;2.30;;;;;;;;;;6171908;28;20038;-79
2021/07/26 14:22:50;;;;;;;5.72;2.60;;;;;;;;;;6154751;28;20392;-78
2021/07/26 14:25:51;;;;;;;4.03;2.60;;;;;;;;;;6169005;28;20049;-79
2021/07/26 14:28:54;;;;;;;6.03;2.93;;;;;;;;;;6171478;28;20093;-82
2021/07/26 14:31:56;;;;;;;7.25;2.85;;;;;;;;;;6168637;28;20088;-80
2021/07/26 14:34:58;;;;;;;2.70;2.50;;;;;;;;;;6174966;28;20046;-80
2021/07/26 14:38:00;;;;;;;2.63;2.33;;;;;;;;;;6148979;28;20041;-79
2021/07/26 14:41:01;;;;;;;4.20;2.73;;;;;;;;;;6145942;28;20811;-78
2021/07/26 14:44:03;;;;;;;4.33;2.13;;;;;;;;;;6164399;28;21311;-79
2021/07/26 14:47:05;;;;;;;3.35;2.38;;;;;;;;;;6145433;28;20072;-79
2021/07/26 14:50:07;;;;;;;3.67;2.38;;;;;;;;;;6156261;28;20548;-79
2021/07/26 14:53:08;;;;;;;2.33;2.13;;;;;;;;;;6139144;28;20117;-79
2021/07/26 14:56:10;;;;;;;6.18;2.28;;;;;;;;;;6158319;28;20045;-78
2021/07/26 14:59:13;;;;;;;2.30;2.05;;;;;;;;;;6156561;28;20190;-79
2021/07/26 15:02:14;;;;;;;2.70;2.20;;;;;;;;;;6158244;28;20045;-79
2021/07/26 15:05:17;;;;;;;2.83;2.00;;;;;;;;;;6159821;28;20193;-79
2021/07/26 15:08:21;;;;;;;3.25;1.92;;;;;;;;;;6158839;28;20540;-79
2021/07/26 15:11:23;;;;;;;2.30;2.10;;;;;;;;;;6160330;28;20183;-79
2021/07/26 15:14:25;;;;;;;2.50;2.30;;;;;;;;;;6150532;28;20370;-78
2021/07/26 15:17:27;;;;;;;2.95;2.40;;;;;;;;;;6163245;28;20651;-78
2021/07/26 15:20:28;;;;;;;3.67;2.38;;;;;;;;;;6163255;28;20041;-78
2021/07/26 15:23:31;;;;;;;2.83;2.28;;;;;;;;;;6165084;28;20330;-78
2021/07/26 15:26:32;;;;;;;3.70;2.45;;;;;;;;;;6161034;28;20191;-78
2021/07/26 15:29:34;;;;;;;3.90;2.20;;;;;;;;;;6154393;28;20115;-79
2021/07/26 15:32:36;;;;;;;3.47;2.40;;;;;;;;;;6147197;28;20059;-78
2021/07/26 15:35:38;;;;;;;2.47;2.10;;;;;;;;;;6158644;28;20053;-78
2021/07/26 15:38:40;;;;;;;2.73;2.10;;;;;;;;;;6162400;28;20095;-78
2021/07/26 15:41:42;;;;;;;2.47;2.20;;;;;;;;;;6162407;28;20910;-78
2021/07/26 15:44:44;;;;;;;3.97;2.38;;;;;;;;;;6148052;28;20778;-78
2021/07/26 15:47:45;;;;;;;3.70;2.03;;;;;;;;;;6162469;28;20034;-77
2021/07/26 15:50:47;;;;;;;4.88;2.42;;;;;;;;;;6167840;28;20372;-78
2021/07/26 15:53:49;;;;;;;2.67;2.30;;;;;;;;;;6157128;28;20208;-75
2021/07/26 15:56:50;;;;;;;3.85;2.55;;;;;;;;;;6140845;28;21152;-77
2021/07/26 15:59:52;;;;;;;3.20;2.23;;;;;;;;;;6149998;28;20054;-77
2021/07/26 16:02:54;;;;;;;3.33;2.40;;;;;;;;;;6155223;28;20061;-77
2021/07/26 16:05:58;;;;;;;3.20;2.65;;;;;;;;;;6171472;28;20033;-77
2021/07/26 16:09:00;;;;;;;2.60;2.40;;;;;;;;;;6174153;28;20777;-78
2021/07/26 16:12:02;;;;;;;3.05;2.55;;;;;;;;;;6176722;28;20316;-78
2021/07/26 16:15:05;;;;;;;3.67;2.60;;;;;;;;;;6175316;28;20906;-78
2021/07/26 16:18:07;;;;;;;2.78;2.42;;;;;;;;;;6177251;28;20432;-78
2021/07/26 16:21:09;;;;;;;3.70;2.47;;;;;;;;;;6178113;28;20041;-78
2021/07/26 16:24:12;;;;;;;3.80;2.42;;;;;;;;;;6177034;28;20842;-79
2021/07/26 16:27:16;;;;;;;3.70;2.70;;;;;;;;;;6181873;28;20041;-78
2021/07/26 16:30:18;;;;;;;2.70;2.28;;;;;;;;;;6183002;28;20128;-78
2021/07/26 16:33:19;;;;;;;2.90;2.40;;;;;;;;;;6145265;28;20145;-79
2021/07/26 16:36:22;;;;;;;2.90;2.60;;;;;;;;;;6152602;28;20060;-78
2021/07/26 16:39:23;;;;;;;3.00;2.58;;;;;;;;;;6170303;28;20673;-78
2021/07/26 16:42:25;;;;;;;2.77;2.30;;;;;;;;;;6167294;28;20125;-79
2021/07/26 16:45:27;;;;;;;4.20;2.42;;;;;;;;;;6157915;28;20048;-78
2021/07/26 16:48:32;;;;;;;3.43;2.53;;;;;;;;;;6170738;28;20160;-78
2021/07/26 16:51:37;;;;;;;2.80;2.40;;;;;;;;;;6173476;28;21594;-78
2021/07/26 16:54:39;;;;;;;2.43;2.23;;;;;;;;;;6146536;28;20116;-78
2021/07/26 16:57:40;;;;;;;4.33;2.63;;;;;;;;;;6173476;28;21308;-79
2021/07/26 17:00:43;;;;;;;2.80;2.40;;;;;;;;;;6156764;28;20060;-78
2021/07/26 17:03:44;;;;;;;3.17;2.60;;;;;;;;;;6123773;28;20052;-78
2021/07/26 17:06:50;;;;;;;5.00;2.80;;;;;;;;;;6174083;28;20049;-78
2021/07/26 17:09:52;;;;;;;3.63;2.65;;;;;;;;;;6177936;28;20034;-78
2021/07/26 17:12:53;;;;;;;3.90;2.60;;;;;;;;;;6139536;28;20192;-77
2021/07/26 17:15:55;;;;;;;5.10;2.53;;;;;;;;;;6150954;28;20451;-78
2021/07/26 17:18:57;;;;;;;4.85;2.70;;;;;;;;;;6158584;28;20050;-78
2021/07/26 17:21:59;;;;;;;3.03;2.42;;;;;;;;;;6152007;28;20107;-78
2021/07/26 17:25:03;;;;;;;3.22;2.60;;;;;;;;;;6147855;28;20052;-77
2021/07/26 17:28:04;;;;;;;3.08;2.70;;;;;;;;;;6152057;28;20038;-78
2021/07/26 17:31:06;;;;;;;2.78;2.35;;;;;;;;;;6155391;28;20046;-77
2021/07/26 17:34:10;;;;;;;2.97;2.57;;;;;;;;;;6153427;28;20120;-78
2021/07/26 17:37:11;;;;;;;4.35;2.20;;;;;;;;;;6156510;28;20455;-78
2021/07/26 17:40:15;;;;;;;3.07;2.33;;;;;;;;;;6169925;28;20034;-78
2021/07/26 17:43:17;;;;;;;3.03;2.65;;;;;;;;;;6144019;28;20419;-78
2021/07/26 17:46:19;;;;;;;3.85;2.60;;;;;;;;;;6158943;28;20235;-78
2021/07/26 17:49:20;;;;;;;3.20;2.30;;;;;;;;;;6153306;28;20041;-78
2021/07/26 17:52:22;;;;;;;3.55;2.33;;;;;;;;;;6132555;28;20053;-78
2021/07/26 17:55:25;;;;;;;4.88;2.63;;;;;;;;;;6135881;28;20125;-78
2021/07/26 17:58:27;;;;;;;5.77;2.40;;;;;;;;;;6155175;28;20370;-78
2021/07/26 18:01:29;;;;;;;4.97;2.75;;;;;;;;;;6173301;28;20052;-78
2021/07/26 18:04:31;;;;;;;3.83;2.70;;;;;;;;;;6171433;28;20061;-78
2021/07/26 18:07:45;;;;;;;4.05;2.60;;;;;;;;;;6178290;28;20132;-84
2021/07/26 18:10:49;;;;;;;3.53;2.83;;;;;;;;;;6118400;28;20037;-84
2021/07/26 18:13:53;;;;;;;3.30;2.60;;;;;;;;;;6148551;28;20121;-84
2021/07/26 18:17:09;;;;;;;3.92;2.50;;;;;;;;;;6091322;28;20747;-84
2021/07/26 18:20:21;;;;;;;3.42;2.67;;;;;;;;;;6132236;28;20064;-84
2021/07/26 18:23:37;;;;;;;4.45;2.67;;;;;;;;;;6141181;28;20038;-84